createdAt,value
2022-10-29T00:04:58.028Z,36.68
2022-10-29T00:10:03.333Z,37.38
2022-10-29T00:15:07.575Z,37.69
2022-10-29T00:20:11.706Z,38.56
2022-10-29T00:25:17.042Z,39.27
2022-10-29T00:30:19.863Z,39.84
2022-10-29T00:35:24.110Z,40.83
2022-10-29T00:40:29.264Z,42.40
2022-10-29T00:45:32.919Z,42.45
2022-10-29T00:50:36.986Z,43.28
2022-10-29T00:55:42.232Z,44.63
2022-10-29T01:00:46.089Z,44.88
2022-10-29T01:05:50.444Z,44.76
2022-10-29T01:11:03.875Z,44.99
2022-10-29T01:16:18.725Z,45.60
2022-10-29T01:21:54.401Z,46.91
2022-10-29T01:27:40.562Z,48.04
2022-10-29T01:32:54.438Z,47.85
2022-10-29T01:38:12.144Z,48.50
2022-10-29T01:48:34.548Z,49.31
2022-10-29T01:53:39.806Z,49.79
2022-10-29T01:58:48.332Z,50.95
2022-10-29T02:04:03.153Z,51.42
2022-10-29T02:09:16.180Z,51.48
2022-10-29T02:14:26.594Z,52.22
2022-10-29T02:19:33.609Z,51.60
2022-10-29T02:24:37.152Z,51.31
2022-10-29T02:29:40.709Z,51.45
2022-10-29T02:34:45.855Z,52.44
2022-10-29T02:39:49.388Z,51.32
2022-10-29T02:44:53.613Z,51.27
2022-10-29T02:49:59.505Z,51.43
2022-10-29T02:55:02.292Z,51.77
2022-10-29T03:00:06.896Z,51.79
2022-10-29T03:05:12.213Z,51.52
2022-10-29T03:10:15.837Z,51.28
2022-10-29T03:15:19.377Z,51.96
2022-10-29T03:20:24.562Z,52.31
2022-10-29T03:25:28.121Z,52.57
2022-10-29T03:30:32.424Z,52.90
2022-10-29T03:35:37.673Z,52.21
2022-10-29T03:40:42.072Z,52.05
2022-10-29T03:45:45.631Z,52.51
2022-10-29T03:50:57.741Z,52.37
2022-10-29T03:56:01.316Z,51.48
2022-10-29T04:01:06.304Z,51.70
2022-10-29T04:06:16.052Z,52.87
2022-10-29T04:11:19.671Z,53.43
2022-10-29T04:16:23.265Z,53.84
2022-10-29T04:23:25.390Z,54.09
2022-10-29T04:32:15.577Z,53.39
2022-10-29T04:37:20.784Z,53.65
2022-10-29T04:42:24.351Z,53.68
2022-10-29T04:47:27.879Z,54.18
2022-10-29T04:52:33.070Z,54.04
2022-10-29T04:57:36.623Z,54.01
2022-10-29T05:02:40.146Z,53.32
2022-10-29T05:07:45.405Z,53.01
2022-10-29T05:12:48.931Z,52.03
2022-10-29T05:17:52.631Z,52.95
2022-10-29T05:23:02.604Z,54.16
2022-10-29T05:28:08.297Z,53.99
2022-10-29T05:33:13.328Z,53.94
2022-10-29T05:38:18.762Z,54.08
2022-10-29T05:43:22.291Z,54.42
2022-10-29T05:48:25.834Z,54.35
2022-10-29T05:53:31.922Z,54.37
2022-10-29T05:58:35.558Z,54.11
2022-10-29T06:03:39.446Z,55.08
2022-10-29T06:08:45.616Z,55.48
2022-10-29T06:13:49.894Z,55.44
2022-10-29T06:18:53.423Z,55.49
2022-10-29T06:23:58.580Z,55.77
2022-10-29T06:29:02.243Z,55.66
2022-10-29T06:34:05.895Z,55.33
2022-10-29T06:39:11.068Z,56.05
2022-10-29T06:44:14.603Z,56.22
2022-10-29T06:49:18.135Z,56.69
2022-10-29T06:54:24.319Z,57.34
2022-10-29T06:59:27.130Z,57.60
2022-10-29T07:04:30.703Z,56.95
2022-10-29T07:09:35.869Z,57.62
2022-10-29T07:14:39.430Z,57.58
2022-10-29T07:19:42.952Z,57.57
2022-10-29T07:24:48.131Z,58.35
2022-10-29T07:29:51.675Z,58.06
2022-10-29T07:34:55.247Z,58.44
2022-10-29T07:40:00.533Z,58.20
2022-10-29T07:45:04.279Z,58.37
2022-10-29T07:50:08.765Z,58.89
2022-10-29T07:55:16.550Z,59.17
2022-10-29T08:00:20.218Z,58.54
2022-10-29T08:05:24.292Z,59.03
2022-10-29T08:10:30.376Z,59.32
2022-10-29T08:15:34.741Z,59.67
2022-10-29T08:20:38.426Z,59.20
2022-10-29T08:25:43.770Z,59.34
2022-10-29T08:30:50.792Z,60.05
2022-10-29T08:35:54.354Z,59.45
2022-10-29T08:41:30.798Z,60.04
2022-10-29T08:46:44.701Z,60.45
2022-10-29T08:51:54.669Z,60.39
2022-10-29T08:57:05.260Z,60.30
2022-10-29T09:02:16.928Z,60.65
2022-10-29T09:07:35.398Z,60.51
2022-10-29T09:13:11.149Z,61.07
2022-10-29T09:18:30.632Z,61.47
2022-10-29T09:23:53.137Z,61.91
2022-10-29T09:29:14.636Z,61.62
2022-10-29T09:34:23.641Z,61.21
2022-10-29T09:39:34.329Z,61.60
2022-10-29T09:44:46.786Z,62.11
2022-10-29T09:50:05.380Z,62.10
2022-10-29T09:55:21.500Z,61.54
2022-10-29T10:00:29.839Z,61.98
2022-10-29T10:05:35.072Z,62.19
2022-10-29T10:10:50.593Z,62.58
2022-10-29T10:15:57.602Z,62.41
2022-10-29T10:21:04.463Z,62.24
2022-10-29T10:26:29.501Z,63.94
2022-10-29T10:31:34.661Z,62.58
2022-10-29T10:36:41.594Z,63.24
2022-10-29T10:41:45.208Z,62.75
2022-10-29T10:46:52.643Z,63.25
2022-10-29T10:51:58.648Z,63.48
2022-10-29T10:57:03.611Z,63.66
2022-10-29T11:02:21.387Z,64.37
2022-10-29T11:07:28.148Z,63.57
2022-10-29T11:12:37.608Z,63.77
2022-10-29T11:17:54.063Z,64.65
2022-10-29T11:23:22.970Z,64.88
2022-10-29T11:28:34.146Z,64.23
2022-10-29T11:33:47.763Z,65.64
2022-10-29T11:38:57.239Z,65.08
2022-10-29T11:44:00.860Z,64.83
2022-10-29T11:49:21.974Z,66.62
2022-10-29T11:54:46.181Z,65.45
2022-10-29T12:00:05.094Z,65.91
2022-10-29T12:05:20.181Z,66.27
2022-10-29T12:10:33.128Z,66.50
2022-10-29T12:15:42.177Z,65.78
2022-10-29T12:20:55.456Z,65.88
2022-10-29T12:26:08.013Z,66.47
2022-10-29T12:31:22.890Z,66.66
2022-10-29T12:36:39.329Z,67.14
2022-10-29T12:41:48.078Z,66.28
2022-10-29T12:47:00.163Z,66.89
2022-10-29T12:52:12.520Z,66.56
2022-10-29T12:57:30.367Z,67.12
2022-10-29T13:02:46.375Z,67.50
2022-10-29T13:08:18.860Z,67.77
2022-10-29T13:13:36.740Z,66.84
2022-10-29T13:18:50.092Z,67.72
2022-10-29T13:24:06.057Z,68.15
2022-10-29T13:29:09.572Z,67.44
2022-10-29T13:34:27.609Z,67.97
2022-10-29T13:39:32.804Z,67.99
2022-10-29T13:44:39.517Z,68.38
2022-10-29T13:49:45.874Z,68.21
2022-10-29T13:54:54.969Z,68.45
2022-10-29T14:00:04.308Z,67.14
2022-10-29T14:05:17.974Z,66.71
2022-10-29T14:10:27.666Z,66.77
2022-10-29T14:15:31.285Z,66.17
2022-10-29T14:20:34.922Z,64.10
2022-10-29T14:25:40.086Z,61.30
2022-10-29T14:30:44.057Z,60.55
2022-10-29T14:35:48.724Z,59.35
2022-10-29T14:40:53.908Z,58.95
2022-10-29T14:46:09.512Z,59.31
2022-10-29T14:51:20.236Z,57.96
2022-10-29T14:56:33.348Z,58.53
2022-10-29T15:01:47.221Z,58.50
2022-10-29T15:06:50.946Z,58.38
2022-10-29T15:12:04.248Z,57.49
2022-10-29T15:17:11.702Z,56.75
2022-10-29T15:22:21.589Z,57.48
2022-10-29T15:27:27.220Z,59.08
2022-10-29T15:32:31.638Z,58.68
2022-10-29T15:37:43.802Z,58.33
2022-10-29T15:42:49.326Z,57.72
2022-10-29T15:47:56.455Z,58.07
2022-10-29T15:53:01.799Z,56.99
2022-10-29T15:58:11.837Z,57.63
2022-10-29T16:03:16.788Z,56.83
2022-10-29T16:08:26.157Z,56.60
2022-10-29T16:13:33.114Z,55.33
2022-10-29T16:18:36.752Z,55.00
2022-10-29T16:23:40.475Z,55.18
2022-10-29T16:28:54.858Z,54.59
2022-10-29T16:34:00.178Z,54.39
2022-10-29T16:39:04.396Z,53.39
2022-10-29T16:44:09.769Z,54.30
2022-10-29T16:49:13.299Z,54.66
2022-10-29T16:54:16.973Z,54.99
2022-10-29T16:59:22.178Z,54.57
2022-10-29T17:04:25.808Z,53.35
2022-10-29T17:09:29.726Z,53.85
2022-10-29T17:14:35.017Z,52.31
2022-10-29T17:19:38.547Z,52.00
2022-10-29T17:24:42.097Z,52.03
2022-10-29T17:29:47.316Z,50.70
2022-10-29T17:34:51.110Z,50.67
2022-10-29T17:39:54.707Z,50.67
2022-10-29T17:44:59.889Z,51.02
2022-10-29T17:50:03.450Z,51.00
2022-10-29T17:55:07.913Z,50.92
2022-10-29T18:00:15.596Z,51.46
2022-10-29T18:05:19.728Z,52.75
2022-10-29T18:10:23.284Z,52.27
2022-10-29T18:15:28.560Z,50.58
2022-10-29T18:20:32.097Z,50.42
2022-10-29T18:25:35.634Z,49.55
2022-10-29T18:30:40.799Z,50.10
2022-10-29T18:35:44.331Z,50.91
2022-10-29T18:40:55.019Z,51.59
2022-10-29T18:46:01.793Z,52.30
2022-10-29T18:51:07.356Z,52.41
2022-10-29T18:56:10.944Z,51.48
2022-10-29T19:01:17.455Z,51.41
2022-10-29T19:06:21.441Z,50.86
2022-10-29T19:11:27.100Z,50.92
2022-10-29T19:16:33.385Z,51.35
2022-10-29T19:21:37.651Z,50.99
2022-10-29T19:26:41.568Z,50.76
2022-10-29T19:31:47.500Z,49.89
2022-10-29T19:36:51.087Z,49.97
2022-10-29T19:41:54.845Z,50.76
2022-10-29T19:47:00.039Z,50.72
2022-10-29T19:52:03.604Z,50.69
2022-10-29T19:57:07.245Z,50.68
2022-10-29T20:02:12.603Z,50.91
2022-10-29T20:07:15.600Z,51.20
2022-10-29T20:12:19.190Z,51.31
2022-10-29T20:17:24.373Z,49.96
2022-10-29T20:22:30.398Z,48.85
2022-10-29T20:27:33.939Z,49.18
2022-10-29T20:32:40.126Z,49.01
2022-10-29T20:37:43.689Z,48.43
2022-10-29T20:42:50.499Z,47.32
2022-10-29T20:47:56.080Z,46.88
2022-10-29T20:53:00.077Z,46.90
2022-10-29T20:58:03.714Z,46.87
2022-10-29T21:03:08.918Z,45.93
2022-10-29T21:08:12.506Z,45.88
2022-10-29T21:13:16.117Z,45.82
2022-10-29T21:18:21.334Z,44.41
2022-10-29T21:23:24.984Z,44.00
2022-10-29T21:28:28.558Z,43.73
2022-10-29T21:33:33.925Z,43.92
2022-10-29T21:38:37.784Z,44.31
2022-10-29T21:43:50.792Z,42.42
2022-10-29T21:48:55.271Z,42.26
2022-10-29T21:53:58.968Z,42.24
2022-10-29T21:59:04.209Z,41.79
2022-10-29T22:04:07.011Z,41.69
2022-10-29T22:09:10.661Z,43.13
2022-10-29T22:14:15.830Z,41.66
2022-10-29T22:19:19.369Z,40.98
2022-10-29T22:24:22.936Z,39.03
2022-10-29T22:29:28.130Z,38.65
2022-10-29T22:34:31.658Z,40.45
2022-10-29T22:39:37.780Z,41.16
2022-10-29T22:44:42.957Z,41.54
2022-10-29T22:49:46.500Z,41.89
2022-10-29T22:54:50.032Z,42.54
2022-10-29T22:59:55.267Z,42.40
2022-10-29T23:04:58.980Z,43.17
2022-10-29T23:10:02.557Z,42.84
2022-10-29T23:15:08.404Z,42.77
2022-10-29T23:20:12.198Z,42.94
2022-10-29T23:25:16.330Z,43.90
2022-10-29T23:30:21.540Z,44.52
2022-10-29T23:35:25.116Z,45.24
2022-10-29T23:40:28.642Z,45.66
2022-10-29T23:45:33.817Z,46.42
2022-10-29T23:50:37.535Z,47.19
2022-10-29T23:55:42.467Z,47.89
